Aviation Digital Data Service (ADDS)

Output produced by METARs form (2121 UTC 30 July 2015)
found at http://aviationweather.gov/adds/metars/
 
KGNV 302017Z 3020/3118 24008KT P6SM VCTS BKN035CB 
     FM302300 VRB02KT P6SM FEW040 SCT250 
     FM311400 22005KT P6SM VCSH SCT025